Time;durP1;ratioP1;P1;durP2;ratioP2;P2;SDS_P1;SDS_P2;PMS_P1;PMS_P2;Temp;Humidity;BMP_temperature;BMP_pressure;BME280_temperature;BME280_humidity;BME280_pressure;Samples;Min_cycle;Max_cycle;Signal;HPM_P1;HPM_P2
2021/12/07 00:00:05;;;;;;;32.97;23.45;;;;;;;;;;5046544;28;20029;-61
2021/12/07 00:02:30;;;;;;;;;;;;;;;;;;5031622;28;20017;-58
2021/12/07 00:04:55;;;;;;;33.95;21.63;;;;;;;;;;5030324;28;19909;-61
2021/12/07 00:07:20;;;;;;;28.38;20.65;;;;;;;;;;5031347;28;20520;-60
2021/12/07 00:09:49;;;;;;;31.33;22.20;;;;;;;;;;5029880;28;20041;-60
2021/12/07 00:12:14;;;;;;;30.05;23.13;;;;;;;;;;5031484;28;20467;-60
2021/12/07 00:14:41;;;;;;;32.30;21.73;;;;;;;;;;5029915;28;20472;-60
2021/12/07 00:17:07;;;;;;;30.77;23.52;;;;;;;;;;5031052;28;20021;-61
2021/12/07 00:19:33;;;;;;;33.05;24.60;;;;;;;;;;5029818;28;20040;-60
2021/12/07 00:21:59;;;;;;;31.00;23.38;;;;;;;;;;5031411;28;20025;-60
2021/12/07 00:24:24;;;;;;;31.08;22.80;;;;;;;;;;5028494;28;20029;-60
2021/12/07 00:26:49;;;;;;;32.00;22.63;;;;;;;;;;5031451;28;20025;-60
2021/12/07 00:29:14;;;;;;;37.15;24.92;;;;;;;;;;5029658;28;20435;-61
2021/12/07 00:31:46;;;;;;;28.83;22.08;;;;;;;;;;5030793;28;20112;-60
2021/12/07 00:34:19;;;;;;;29.33;22.58;;;;;;;;;;5031221;28;20476;-60
2021/12/07 00:36:45;;;;;;;27.08;21.42;;;;;;;;;;5029885;28;20492;-60
2021/12/07 00:39:12;;;;;;;32.38;24.27;;;;;;;;;;5030712;28;20031;-60
2021/12/07 00:41:37;;;;;;;35.28;23.75;;;;;;;;;;5029469;28;20072;-60
2021/12/07 00:44:03;;;;;;;32.63;22.73;;;;;;;;;;5031110;28;20045;-60
2021/12/07 00:46:29;;;;;;;31.00;23.00;;;;;;;;;;5029112;28;21100;-60
2021/12/07 00:48:55;;;;;;;32.83;22.90;;;;;;;;;;5031158;28;20105;-60
2021/12/07 00:51:20;;;;;;;31.60;24.27;;;;;;;;;;5029385;28;20048;-60
2021/12/07 00:53:45;;;;;;;32.63;23.60;;;;;;;;;;5030599;28;20052;-60
2021/12/07 00:56:10;;;;;;;30.42;19.80;;;;;;;;;;5029590;28;20451;-60
2021/12/07 00:58:35;;;;;;;24.80;21.15;;;;;;;;;;5030935;28;20033;-60
2021/12/07 01:01:12;;;;;;;28.42;19.85;;;;;;;;;;5042426;28;20546;-60
2021/12/07 01:03:38;;;;;;;27.20;20.02;;;;;;;;;;5050592;28;20634;-59
2021/12/07 01:24:58;;;;;;;28.48;22.30;;;;;;;;;;5049064;28;20155;-59
2021/12/07 01:27:23;;;;;;;31.02;21.20;;;;;;;;;;5050436;28;20104;-59
2021/12/07 01:29:59;;;;;;;36.22;23.00;;;;;;;;;;5048882;28;20068;-59
2021/12/07 01:32:39;;;;;;;35.78;23.92;;;;;;;;;;5050148;28;20114;-60
2021/12/07 01:38:06;;;;;;;32.30;21.27;;;;;;;;;;5054181;28;20521;-59
2021/12/07 01:40:53;;;;;;;32.70;20.33;;;;;;;;;;5052515;28;20033;-59
2021/12/07 02:01:47;;;;;;;36.97;22.40;;;;;;;;;;5052166;28;20040;-59
2021/12/07 02:04:12;;;;;;;30.52;21.95;;;;;;;;;;5052650;28;20368;-59
2021/12/07 02:06:37;;;;;;;33.28;23.75;;;;;;;;;;5033456;28;20068;-60
2021/12/07 02:09:05;;;;;;;31.93;21.80;;;;;;;;;;5033361;28;20044;-59
2021/12/07 02:11:30;;;;;;;38.22;24.08;;;;;;;;;;5031786;28;20456;-59
2021/12/07 02:16:21;;;;;;;38.40;25.70;;;;;;;;;;5032866;28;20042;-59
2021/12/07 02:18:46;;;;;;;32.05;24.67;;;;;;;;;;5033656;28;20029;-59
2021/12/07 02:21:19;;;;;;;37.80;26.70;;;;;;;;;;5032204;28;20156;-59
2021/12/07 02:23:44;;;;;;;33.55;24.35;;;;;;;;;;5033461;28;20452;-59
2021/12/07 02:26:10;;;;;;;38.45;25.83;;;;;;;;;;5031910;28;20049;-59
2021/12/07 02:28:38;;;;;;;41.45;23.90;;;;;;;;;;5033587;28;20018;-59
2021/12/07 02:31:04;;;;;;;31.65;24.83;;;;;;;;;;5031606;28;20037;-59
2021/12/07 02:33:29;;;;;;;40.25;26.75;;;;;;;;;;5032955;28;20083;-59
2021/12/07 02:35:54;;;;;;;36.85;24.50;;;;;;;;;;5044545;28;20037;-59
2021/12/07 02:38:19;;;;;;;36.53;24.00;;;;;;;;;;5052676;28;20358;-58
2021/12/07 02:40:45;;;;;;;42.08;28.73;;;;;;;;;;5045413;28;20037;-59
2021/12/07 02:43:10;;;;;;;41.65;25.27;;;;;;;;;;5040174;28;20021;-59
2021/12/07 02:45:35;;;;;;;44.60;31.00;;;;;;;;;;5037282;28;20037;-59
2021/12/07 02:48:00;;;;;;;43.67;27.73;;;;;;;;;;5032299;28;20412;-59
2021/12/07 02:50:25;;;;;;;41.45;28.63;;;;;;;;;;5031184;28;20053;-58
2021/12/07 02:52:50;;;;;;;43.00;27.58;;;;;;;;;;5032552;28;20026;-59
2021/12/07 02:55:16;;;;;;;43.10;29.17;;;;;;;;;;5031161;28;20044;-59
2021/12/07 02:57:43;;;;;;;42.67;29.73;;;;;;;;;;5032837;28;20483;-59
2021/12/07 03:00:15;;;;;;;48.63;30.40;;;;;;;;;;5031144;28;20041;-59
2021/12/07 03:02:49;;;;;;;51.35;33.78;;;;;;;;;;5032705;28;20049;-59
2021/12/07 03:05:28;;;;;;;51.38;30.15;;;;;;;;;;5031238;28;20121;-60
2021/12/07 03:09:00;;;;;;;;;;;;;;;;;;5033097;28;20010;-59
2021/12/07 03:27:01;;;;;;;47.95;31.83;;;;;;;;;;5032678;28;20087;-59
2021/12/07 03:29:26;;;;;;;52.15;33.47;;;;;;;;;;5030243;28;20026;-60
2021/12/07 03:31:51;;;;;;;48.05;31.60;;;;;;;;;;5032161;28;20026;-60
2021/12/07 03:34:17;;;;;;;41.20;29.63;;;;;;;;;;5030647;28;20402;-60
2021/12/07 03:36:42;;;;;;;43.97;29.23;;;;;;;;;;5031814;28;20111;-59
2021/12/07 03:39:07;;;;;;;48.30;31.70;;;;;;;;;;5030730;28;20791;-59
2021/12/07 03:41:33;;;;;;;47.70;32.33;;;;;;;;;;5031801;28;20452;-59
2021/12/07 03:43:59;;;;;;;41.58;28.42;;;;;;;;;;5031455;28;20149;-60
2021/12/07 03:46:24;;;;;;;55.53;33.42;;;;;;;;;;5030338;28;20488;-59
2021/12/07 03:48:49;;;;;;;44.90;30.20;;;;;;;;;;5048387;28;20025;-60
2021/12/07 03:51:15;;;;;;;46.33;31.02;;;;;;;;;;5050071;28;20471;-60
2021/12/07 03:53:40;;;;;;;43.22;29.75;;;;;;;;;;5051337;28;20096;-60
2021/12/07 03:56:06;;;;;;;48.38;31.27;;;;;;;;;;5050257;28;20079;-60
2021/12/07 03:58:32;;;;;;;46.53;30.73;;;;;;;;;;5051448;28;20020;-60
2021/12/07 04:00:57;;;;;;;55.38;31.40;;;;;;;;;;5041993;28;20092;-59
2021/12/07 04:03:23;;;;;;;54.67;33.80;;;;;;;;;;5031529;28;20480;-60
2021/12/07 04:05:52;;;;;;;54.35;35.20;;;;;;;;;;5030274;28;20044;-60
2021/12/07 04:08:17;;;;;;;;;;;;;;;;;;5031743;28;20100;-60
2021/12/07 04:10:43;;;;;;;50.20;32.45;;;;;;;;;;5030208;28;20007;-60
2021/12/07 04:13:08;;;;;;;55.53;32.83;;;;;;;;;;5031575;28;20473;-60
2021/12/07 04:15:34;;;;;;;48.45;31.92;;;;;;;;;;5029628;28;20851;-60
2021/12/07 04:17:59;;;;;;;62.67;38.38;;;;;;;;;;5031436;28;20124;-60
2021/12/07 04:20:24;;;;;;;52.10;33.92;;;;;;;;;;5029443;28;20037;-61
2021/12/07 04:22:49;;;;;;;65.23;35.60;;;;;;;;;;5030954;28;20024;-60
2021/12/07 04:25:15;;;;;;;57.47;34.63;;;;;;;;;;5029822;28;20459;-59
2021/12/07 04:27:41;;;;;;;68.38;36.63;;;;;;;;;;5031248;28;20427;-59
2021/12/07 04:30:11;;;;;;;54.97;34.53;;;;;;;;;;5029683;28;20037;-59
2021/12/07 04:32:36;;;;;;;63.25;34.83;;;;;;;;;;5031223;28;20029;-59
2021/12/07 04:35:03;;;;;;;68.63;36.55;;;;;;;;;;5029750;28;20033;-59
2021/12/07 04:37:28;;;;;;;64.43;37.47;;;;;;;;;;5030612;28;20032;-59
2021/12/07 04:39:53;;;;;;;61.55;38.30;;;;;;;;;;5029822;28;20041;-59
2021/12/07 04:42:18;;;;;;;53.72;33.28;;;;;;;;;;5030983;28;20029;-60
2021/12/07 04:44:51;;;;;;;62.13;35.60;;;;;;;;;;5029598;28;20091;-60
2021/12/07 04:47:24;;;;;;;62.92;34.35;;;;;;;;;;5037102;28;20548;-60
2021/12/07 04:50:23;;;;;;;55.70;31.67;;;;;;;;;;5049247;28;20079;-59
2021/12/07 04:58:11;;;;;;;45.20;29.17;;;;;;;;;;5050613;28;20027;-60
2021/12/07 05:00:36;;;;;;;52.70;31.00;;;;;;;;;;5049172;28;20029;-60
2021/12/07 05:03:05;;;;;;;54.83;33.83;;;;;;;;;;5050775;28;20505;-60
2021/12/07 05:05:40;;;;;;;53.90;33.55;;;;;;;;;;5048701;28;20545;-60
2021/12/07 05:08:09;;;;;;;58.00;32.30;;;;;;;;;;5048166;28;20056;-60
2021/12/07 05:11:01;;;;;;;52.45;32.90;;;;;;;;;;5040966;28;20836;-59
2021/12/07 05:13:36;;;;;;;45.47;26.17;;;;;;;;;;5041800;28;20399;-57
2021/12/07 05:16:12;;;;;;;;;;;;;;;;;;5034408;28;20041;-59
2021/12/07 05:18:56;;;;;;;66.82;35.03;;;;;;;;;;5035905;28;19909;-59
2021/12/07 05:24:14;;;;;;;64.03;35.88;;;;;;;;;;5035527;28;20048;-59
2021/12/07 05:37:48;;;;;;;69.00;33.15;;;;;;;;;;5035384;28;20561;-58
2021/12/07 05:40:16;;;;;;;53.85;32.53;;;;;;;;;;5034371;28;20092;-58
2021/12/07 05:42:42;;;;;;;53.33;33.65;;;;;;;;;;5034007;28;20026;-58
2021/12/07 05:45:08;;;;;;;61.33;35.63;;;;;;;;;;5024313;28;20041;-58
2021/12/07 05:47:34;;;;;;;61.80;34.10;;;;;;;;;;5014015;28;20018;-58
2021/12/07 05:49:59;;;;;;;55.42;33.08;;;;;;;;;;5012410;28;20099;-58
2021/12/07 05:52:25;;;;;;;43.78;29.05;;;;;;;;;;5012823;28;20037;-58
2021/12/07 05:54:50;;;;;;;61.38;31.88;;;;;;;;;;5012917;28;20034;-58
2021/12/07 05:57:15;;;;;;;54.83;30.77;;;;;;;;;;5013792;28;20048;-58
2021/12/07 05:59:40;;;;;;;49.08;28.48;;;;;;;;;;5012895;28;20456;-58
2021/12/07 06:02:06;;;;;;;55.17;30.00;;;;;;;;;;5014094;28;20018;-58
2021/12/07 06:04:31;;;;;;;61.05;30.55;;;;;;;;;;5012407;28;20029;-58
2021/12/07 06:06:57;;;;;;;53.67;29.98;;;;;;;;;;5013883;28;20113;-58
2021/12/07 06:09:23;;;;;;;75.38;34.95;;;;;;;;;;5012566;28;20057;-58
2021/12/07 06:11:50;;;;;;;65.78;32.60;;;;;;;;;;5014193;28;20066;-58
2021/12/07 06:14:18;;;;;;;62.00;32.25;;;;;;;;;;5012143;28;20025;-59
2021/12/07 06:16:44;;;;;;;61.60;31.33;;;;;;;;;;5013778;28;20548;-58
2021/12/07 06:19:09;;;;;;;71.97;37.15;;;;;;;;;;5012551;28;20113;-58
2021/12/07 06:21:34;;;;;;;58.55;30.17;;;;;;;;;;5012282;28;20033;-58
2021/12/07 06:23:59;;;;;;;65.72;34.53;;;;;;;;;;5019019;28;20018;-59
2021/12/07 06:26:24;;;;;;;80.03;31.80;;;;;;;;;;5031702;28;20033;-59
2021/12/07 06:28:49;;;;;;;61.78;31.52;;;;;;;;;;5033076;28;20045;-59
2021/12/07 06:31:15;;;;;;;54.80;30.73;;;;;;;;;;5031606;28;20148;-59
2021/12/07 06:33:40;;;;;;;68.82;33.40;;;;;;;;;;5033434;28;20454;-59
2021/12/07 06:36:06;;;;;;;59.55;27.27;;;;;;;;;;5031580;28;20047;-59
2021/12/07 06:38:32;;;;;;;58.35;31.63;;;;;;;;;;5033252;28;20041;-58
2021/12/07 06:40:59;;;;;;;53.75;27.65;;;;;;;;;;5031745;28;20037;-58
2021/12/07 06:43:24;;;;;;;57.45;30.05;;;;;;;;;;5032588;28;20594;-58
2021/12/07 06:45:49;;;;;;;62.67;29.55;;;;;;;;;;5031707;28;20103;-58
2021/12/07 06:48:14;;;;;;;54.90;29.70;;;;;;;;;;5032817;28;20018;-58
2021/12/07 06:50:40;;;;;;;45.53;27.70;;;;;;;;;;5031209;28;20413;-58
2021/12/07 06:53:05;;;;;;;43.78;25.40;;;;;;;;;;5032941;28;20507;-58
2021/12/07 06:55:30;;;;;;;46.30;24.38;;;;;;;;;;5031214;28;20159;-58
2021/12/07 06:57:55;;;;;;;42.60;23.20;;;;;;;;;;5032743;28;20116;-58
2021/12/07 07:00:21;;;;;;;52.55;25.17;;;;;;;;;;5031083;28;20045;-58
2021/12/07 07:02:47;;;;;;;70.03;25.63;;;;;;;;;;5032793;28;20014;-58
2021/12/07 07:05:12;;;;;;;43.35;26.58;;;;;;;;;;5031270;28;20045;-58
2021/12/07 07:07:41;;;;;;;38.53;25.02;;;;;;;;;;5032504;28;20025;-58
2021/12/07 07:10:08;;;;;;;50.70;25.70;;;;;;;;;;5031172;28;20037;-58
2021/12/07 07:12:34;;;;;;;49.67;26.27;;;;;;;;;;5032465;28;20017;-58
2021/12/07 07:14:59;;;;;;;49.55;25.80;;;;;;;;;;5031038;28;20120;-58
2021/12/07 07:17:24;;;;;;;46.77;25.77;;;;;;;;;;5032359;28;20491;-58
2021/12/07 07:19:49;;;;;;;53.85;26.05;;;;;;;;;;5029338;28;20452;-59
2021/12/07 07:22:14;;;;;;;57.45;26.25;;;;;;;;;;5032074;28;20029;-59
2021/12/07 07:24:42;;;;;;;72.72;27.40;;;;;;;;;;5030972;28;20083;-59
2021/12/07 07:27:08;;;;;;;55.90;28.33;;;;;;;;;;5032179;28;20043;-57
2021/12/07 07:29:33;;;;;;;62.60;28.73;;;;;;;;;;5030575;28;21045;-58
2021/12/07 07:31:58;;;;;;;67.75;29.05;;;;;;;;;;5032187;28;20412;-58
2021/12/07 07:34:23;;;;;;;41.25;25.05;;;;;;;;;;5028800;28;20021;-59
2021/12/07 07:36:49;;;;;;;40.58;24.15;;;;;;;;;;5031475;28;20384;-58
2021/12/07 07:39:14;;;;;;;48.85;20.40;;;;;;;;;;5029770;28;20036;-58
2021/12/07 07:41:39;;;;;;;50.33;25.63;;;;;;;;;;5030980;28;20030;-58
2021/12/07 07:44:05;;;;;;;43.88;24.40;;;;;;;;;;5031298;28;20482;-58
2021/12/07 07:46:30;;;;;;;53.95;26.38;;;;;;;;;;5029816;28;20029;-58
2021/12/07 07:48:55;;;;;;;50.28;22.95;;;;;;;;;;5031124;28;20013;-58
2021/12/07 07:51:20;;;;;;;52.40;24.45;;;;;;;;;;5029598;28;20183;-58
2021/12/07 07:53:46;;;;;;;73.30;24.02;;;;;;;;;;5031672;28;20043;-59
2021/12/07 07:56:11;;;;;;;54.60;22.45;;;;;;;;;;5030047;28;20034;-58
2021/12/07 07:58:36;;;;;;;46.40;23.67;;;;;;;;;;5031526;28;20025;-58
2021/12/07 08:01:02;;;;;;;53.83;21.17;;;;;;;;;;5030164;28;20048;-58
2021/12/07 08:03:27;;;;;;;40.70;21.98;;;;;;;;;;5031017;28;20440;-58
2021/12/07 08:05:53;;;;;;;56.83;25.13;;;;;;;;;;5030354;28;20034;-58
2021/12/07 08:08:19;;;;;;;49.92;23.98;;;;;;;;;;5031348;28;20424;-58
2021/12/07 08:10:45;;;;;;;39.00;20.33;;;;;;;;;;5029954;28;20037;-58
2021/12/07 08:13:10;;;;;;;44.40;23.05;;;;;;;;;;5031455;28;20095;-58
2021/12/07 08:15:39;;;;;;;47.63;20.95;;;;;;;;;;5029785;28;20041;-58
2021/12/07 08:18:04;;;;;;;41.55;21.92;;;;;;;;;;5031421;28;20024;-58
2021/12/07 08:20:30;;;;;;;49.03;21.98;;;;;;;;;;5029655;28;20060;-58
2021/12/07 08:22:55;;;;;;;51.75;25.58;;;;;;;;;;5031530;28;20014;-58
2021/12/07 08:25:20;;;;;;;46.53;24.13;;;;;;;;;;5029359;28;20029;-58
2021/12/07 08:27:46;;;;;;;42.20;24.05;;;;;;;;;;5031229;28;20014;-58
2021/12/07 08:30:12;;;;;;;62.38;22.98;;;;;;;;;;5029841;28;20033;-58
2021/12/07 08:32:39;;;;;;;45.17;20.27;;;;;;;;;;5030759;28;20025;-58
2021/12/07 08:35:04;;;;;;;49.60;20.63;;;;;;;;;;5029669;28;20564;-58
2021/12/07 08:37:29;;;;;;;38.40;19.17;;;;;;;;;;5024248;28;20104;-58
2021/12/07 08:39:54;;;;;;;44.85;20.27;;;;;;;;;;5029245;28;20061;-58
2021/12/07 08:42:20;;;;;;;34.33;19.15;;;;;;;;;;5030696;28;20381;-58
2021/12/07 08:44:45;;;;;;;35.60;16.97;;;;;;;;;;5029183;28;20241;-58
2021/12/07 08:47:10;;;;;;;39.00;18.60;;;;;;;;;;5030635;28;20429;-58
2021/12/07 08:49:35;;;;;;;44.35;18.75;;;;;;;;;;5028988;28;20233;-58
2021/12/07 08:52:01;;;;;;;39.05;18.65;;;;;;;;;;5030750;28;20083;-58
2021/12/07 08:59:36;;;;;;;42.80;17.85;;;;;;;;;;5029172;28;20048;-58
2021/12/07 08:59:55;;;;;;;30.58;16.65;;;;;;;;;;5029504;28;20037;-59
2021/12/07 09:02:21;;;;;;;33.05;17.48;;;;;;;;;;5030464;28;20018;-58
2021/12/07 09:04:47;;;;;;;35.13;14.25;;;;;;;;;;5029355;28;20026;-58
2021/12/07 09:07:12;;;;;;;35.97;14.75;;;;;;;;;;5031116;28;20499;-58
2021/12/07 09:09:38;;;;;;;43.92;19.92;;;;;;;;;;5029011;28;20026;-58
2021/12/07 09:12:06;;;;;;;36.10;16.85;;;;;;;;;;5030972;28;20021;-58
2021/12/07 09:14:32;;;;;;;23.50;12.57;;;;;;;;;;5029345;28;20044;-58
2021/12/07 09:16:57;;;;;;;22.90;12.95;;;;;;;;;;5030871;28;20030;-58
2021/12/07 09:19:23;;;;;;;21.30;12.40;;;;;;;;;;5028252;28;20104;-58
2021/12/07 09:21:48;;;;;;;29.67;14.40;;;;;;;;;;5029092;28;20112;-58
2021/12/07 09:24:13;;;;;;;37.15;14.55;;;;;;;;;;5029356;28;20538;-57
2021/12/07 09:26:38;;;;;;;39.83;16.67;;;;;;;;;;5029742;28;20072;-58
2021/12/07 09:29:04;;;;;;;22.80;12.05;;;;;;;;;;5031110;28;20944;-58
2021/12/07 09:31:29;;;;;;;19.83;12.00;;;;;;;;;;5028761;28;20037;-58
2021/12/07 09:33:55;;;;;;;18.90;10.48;;;;;;;;;;5030449;28;20096;-58
2021/12/07 09:36:20;;;;;;;25.90;10.55;;;;;;;;;;5029062;28;20116;-58
2021/12/07 09:38:45;;;;;;;22.02;11.38;;;;;;;;;;5030784;28;20021;-58
2021/12/07 09:41:11;;;;;;;23.42;11.23;;;;;;;;;;5028630;28;20037;-58
2021/12/07 09:43:37;;;;;;;27.77;13.13;;;;;;;;;;5030346;28;20108;-58
2021/12/07 09:46:03;;;;;;;20.15;11.45;;;;;;;;;;5029290;28;20112;-58
2021/12/07 09:48:29;;;;;;;23.42;11.98;;;;;;;;;;5030057;28;20022;-58
2021/12/07 09:50:54;;;;;;;26.73;13.38;;;;;;;;;;5029001;28;20061;-58
2021/12/07 09:53:20;;;;;;;29.95;12.73;;;;;;;;;;5030325;28;20511;-58
2021/12/07 09:55:47;;;;;;;24.52;11.82;;;;;;;;;;5021967;28;20042;-58
2021/12/07 09:58:12;;;;;;;29.90;14.60;;;;;;;;;;5033489;28;20518;-58
2021/12/07 10:00:38;;;;;;;46.60;14.77;;;;;;;;;;5032254;28;20040;-58
2021/12/07 10:03:04;;;;;;;26.33;13.15;;;;;;;;;;5033654;28;20018;-58
2021/12/07 10:05:30;;;;;;;28.92;12.57;;;;;;;;;;5031560;28;20040;-58
2021/12/07 10:07:56;;;;;;;16.88;11.38;;;;;;;;;;5034046;28;20014;-58
2021/12/07 10:10:23;;;;;;;21.42;13.05;;;;;;;;;;5031686;28;20037;-58
2021/12/07 10:12:48;;;;;;;26.17;13.15;;;;;;;;;;5033713;28;20444;-58
2021/12/07 10:15:14;;;;;;;27.20;13.43;;;;;;;;;;5032262;28;20040;-58
2021/12/07 10:17:40;;;;;;;20.52;12.70;;;;;;;;;;5033367;28;20500;-57
2021/12/07 10:20:22;;;;;;;32.97;14.00;;;;;;;;;;5032146;28;20033;-58
2021/12/07 10:22:48;;;;;;;31.23;14.05;;;;;;;;;;5033397;28;20017;-58
2021/12/07 10:25:23;;;;;;;35.90;13.95;;;;;;;;;;5031659;28;20041;-58
2021/12/07 10:27:49;;;;;;;24.45;12.90;;;;;;;;;;5033491;28;20014;-57
2021/12/07 10:30:18;;;;;;;23.73;12.37;;;;;;;;;;5032021;28;20083;-58
2021/12/07 10:32:55;;;;;;;27.00;13.38;;;;;;;;;;5033241;28;20440;-58
2021/12/07 10:35:31;;;;;;;22.27;12.95;;;;;;;;;;5031122;28;20044;-58
2021/12/07 10:38:16;;;;;;;35.33;15.82;;;;;;;;;;5033399;28;20088;-58
2021/12/07 10:40:54;;;;;;;28.13;12.73;;;;;;;;;;5031418;28;20038;-58
2021/12/07 10:43:38;;;;;;;27.50;12.25;;;;;;;;;;5032844;28;20040;-58
2021/12/07 10:46:23;;;;;;;19.67;10.43;;;;;;;;;;5031367;28;20034;-58
2021/12/07 10:48:48;;;;;;;24.15;12.38;;;;;;;;;;5033036;28;20649;-58
2021/12/07 10:51:13;;;;;;;23.75;12.00;;;;;;;;;;5031425;28;20081;-57
2021/12/07 10:53:38;;;;;;;28.23;12.73;;;;;;;;;;5032197;28;20952;-57
2021/12/07 10:56:03;;;;;;;23.20;12.57;;;;;;;;;;5031556;28;20072;-58
2021/12/07 10:58:30;;;;;;;30.80;10.60;;;;;;;;;;5032628;28;20025;-57
2021/12/07 11:00:55;;;;;;;25.55;14.10;;;;;;;;;;5045673;28;21025;-58
2021/12/07 11:03:22;;;;;;;20.95;10.68;;;;;;;;;;5052699;28;20062;-57
2021/12/07 11:05:50;;;;;;;21.33;11.57;;;;;;;;;;5037494;28;20030;-58
2021/12/07 11:08:16;;;;;;;;;;;;;;;;;;5031930;28;20528;-58
2021/12/07 11:10:43;;;;;;;31.20;13.25;;;;;;;;;;5031020;28;19916;-57
2021/12/07 11:13:15;;;;;;;31.00;14.90;;;;;;;;;;5027575;28;20623;-57
2021/12/07 11:15:49;;;;;;;22.90;13.15;;;;;;;;;;5023635;28;20064;-57
2021/12/07 11:18:15;;;;;;;27.60;12.35;;;;;;;;;;5034397;28;20040;-58
2021/12/07 11:20:40;;;;;;;35.33;15.38;;;;;;;;;;5030751;28;20038;-58
2021/12/07 11:23:05;;;;;;;25.52;12.40;;;;;;;;;;5035023;28;20017;-57
2021/12/07 11:31:33;;;;;;;19.48;11.65;;;;;;;;;;5047934;28;20044;-57
2021/12/07 11:34:10;;;;;;;21.75;11.10;;;;;;;;;;5044287;28;20113;-57
2021/12/07 11:36:38;;;;;;;20.83;9.90;;;;;;;;;;5039037;28;20049;-57
2021/12/07 11:39:17;;;;;;;29.33;13.45;;;;;;;;;;5032423;28;20075;-56
2021/12/07 11:41:46;;;;;;;25.40;14.05;;;;;;;;;;5051101;28;20483;-57
2021/12/07 11:44:11;;;;;;;30.83;14.57;;;;;;;;;;5047289;28;20075;-57
2021/12/07 11:46:37;;;;;;;26.35;11.77;;;;;;;;;;5031173;28;20372;-57
2021/12/07 11:49:04;;;;;;;20.13;12.18;;;;;;;;;;5030241;28;20013;-57
2021/12/07 11:51:29;;;;;;;23.33;11.25;;;;;;;;;;5031049;28;20403;-57
2021/12/07 11:53:54;;;;;;;24.85;11.85;;;;;;;;;;5031277;28;20034;-57
2021/12/07 11:56:20;;;;;;;22.88;11.48;;;;;;;;;;5029868;28;20037;-57
2021/12/07 11:58:45;;;;;;;32.23;11.10;;;;;;;;;;5031422;28;20033;-57
2021/12/07 12:01:10;;;;;;;20.42;11.40;;;;;;;;;;5029720;28;20549;-57
2021/12/07 12:03:35;;;;;;;32.23;12.33;;;;;;;;;;5031177;28;20017;-56
2021/12/07 12:06:00;;;;;;;20.95;10.93;;;;;;;;;;5029995;28;20403;-57
2021/12/07 12:08:26;;;;;;;23.48;11.73;;;;;;;;;;5030713;28;20013;-57
2021/12/07 12:10:59;;;;;;;23.55;12.20;;;;;;;;;;5029753;28;20042;-57
2021/12/07 12:13:42;;;;;;;18.75;10.10;;;;;;;;;;5031400;28;20597;-57
2021/12/07 12:16:15;;;;;;;27.00;10.68;;;;;;;;;;5029529;28;20036;-57
2021/12/07 12:18:52;;;;;;;29.83;13.25;;;;;;;;;;5031172;28;20049;-57
2021/12/07 12:21:36;;;;;;;31.70;14.25;;;;;;;;;;5028692;28;20403;-57
2021/12/07 12:24:25;;;;;;;30.35;8.93;;;;;;;;;;5036426;28;20028;-57
2021/12/07 12:27:03;;;;;;;20.10;8.65;;;;;;;;;;5049694;28;20108;-57
2021/12/07 12:29:31;;;;;;;24.83;10.82;;;;;;;;;;5048980;28;20028;-57
2021/12/07 12:31:57;;;;;;;21.88;12.50;;;;;;;;;;5051032;28;20464;-57
2021/12/07 12:34:30;;;;;;;17.15;10.10;;;;;;;;;;5048928;28;20480;-57
2021/12/07 12:36:55;;;;;;;20.48;12.95;;;;;;;;;;5041455;28;20025;-57
2021/12/07 12:39:38;;;;;;;32.63;11.63;;;;;;;;;;5036117;28;20108;-58
2021/12/07 12:42:03;;;;;;;14.27;9.77;;;;;;;;;;5050588;28;20075;-57
2021/12/07 12:44:33;;;;;;;24.38;9.63;;;;;;;;;;5048731;28;20400;-58
2021/12/07 12:46:58;;;;;;;27.35;12.45;;;;;;;;;;5050496;28;20103;-57
2021/12/07 12:49:35;;;;;;;23.02;9.35;;;;;;;;;;5048984;28;20586;-57
2021/12/07 12:52:00;;;;;;;19.70;10.05;;;;;;;;;;5050148;28;20057;-57
2021/12/07 12:54:25;;;;;;;16.75;10.75;;;;;;;;;;5048758;28;20377;-58
2021/12/07 12:56:50;;;;;;;22.52;10.18;;;;;;;;;;5050418;28;20028;-57
2021/12/07 12:59:18;;;;;;;24.03;10.50;;;;;;;;;;5048477;28;20025;-57
2021/12/07 13:01:44;;;;;;;18.27;8.52;;;;;;;;;;5050402;28;20454;-57
2021/12/07 13:04:10;;;;;;;13.48;8.80;;;;;;;;;;5048966;28;20510;-58
2021/12/07 13:06:54;;;;;;;15.90;8.63;;;;;;;;;;5049913;28;20028;-57
2021/12/07 13:09:19;;;;;;;22.02;8.05;;;;;;;;;;5049031;28;20108;-57
2021/12/07 13:11:56;;;;;;;21.40;7.78;;;;;;;;;;5050674;28;20099;-58
2021/12/07 13:14:21;;;;;;;12.18;7.35;;;;;;;;;;5047988;28;20379;-57
2021/12/07 13:17:05;;;;;;;20.23;7.93;;;;;;;;;;5050470;28;20422;-57
2021/12/07 13:19:30;;;;;;;28.05;11.35;;;;;;;;;;5048824;28;20033;-57
2021/12/07 13:22:00;;;;;;;16.58;9.13;;;;;;;;;;5050200;28;20095;-57
2021/12/07 13:24:35;;;;;;;14.80;8.30;;;;;;;;;;5048427;28;20096;-57
2021/12/07 13:27:00;;;;;;;28.58;10.43;;;;;;;;;;5050219;28;20104;-57
2021/12/07 13:29:26;;;;;;;24.77;11.25;;;;;;;;;;5048232;28;20096;-58
2021/12/07 13:31:56;;;;;;;20.55;8.23;;;;;;;;;;5051986;28;20020;-58
2021/12/07 13:34:32;;;;;;;20.13;8.68;;;;;;;;;;5051839;28;20017;-58
2021/12/07 13:37:00;;;;;;;17.45;8.32;;;;;;;;;;5053670;28;20538;-57
2021/12/07 13:39:25;;;;;;;23.97;10.13;;;;;;;;;;5052289;28;20017;-57
2021/12/07 13:42:09;;;;;;;19.15;7.43;;;;;;;;;;5053696;28;20090;-57
2021/12/07 13:44:37;;;;;;;21.77;8.75;;;;;;;;;;5052042;28;20843;-57
2021/12/07 13:47:08;;;;;;;23.38;7.40;;;;;;;;;;5054022;28;20056;-57
2021/12/07 13:49:34;;;;;;;28.23;11.77;;;;;;;;;;5052031;28;20666;-57
2021/12/07 13:52:00;;;;;;;15.70;8.45;;;;;;;;;;5053195;28;20420;-57
2021/12/07 13:54:25;;;;;;;29.42;11.40;;;;;;;;;;5051686;28;20013;-57
2021/12/07 13:56:52;;;;;;;16.23;8.35;;;;;;;;;;5047138;28;20056;-58
2021/12/07 13:59:21;;;;;;;27.48;8.77;;;;;;;;;;5049675;28;20536;-58
2021/12/07 14:01:48;;;;;;;37.35;11.32;;;;;;;;;;5051593;28;20029;-58
2021/12/07 14:04:13;;;;;;;29.83;8.75;;;;;;;;;;5051277;28;20056;-57
2021/12/07 14:06:44;;;;;;;17.47;7.50;;;;;;;;;;5052502;28;20052;-57
2021/12/07 14:09:10;;;;;;;24.60;7.53;;;;;;;;;;5052091;28;20403;-56
2021/12/07 14:11:35;;;;;;;20.10;8.55;;;;;;;;;;5053183;28;20104;-57
2021/12/07 14:14:01;;;;;;;16.17;7.07;;;;;;;;;;5052943;28;20143;-57
2021/12/07 14:16:27;;;;;;;27.95;9.57;;;;;;;;;;5051557;28;20051;-57
2021/12/07 14:18:52;;;;;;;21.73;6.32;;;;;;;;;;5053351;28;20086;-57
2021/12/07 14:21:17;;;;;;;23.70;8.40;;;;;;;;;;5051221;28;20040;-58
2021/12/07 14:23:47;;;;;;;22.10;8.25;;;;;;;;;;5053136;28;20017;-58
2021/12/07 14:26:18;;;;;;;21.55;10.57;;;;;;;;;;5051648;28;20404;-57
2021/12/07 14:28:56;;;;;;;27.02;11.23;;;;;;;;;;5052825;28;20103;-57
2021/12/07 14:31:23;;;;;;;17.92;6.85;;;;;;;;;;5051148;28;20415;-57
2021/12/07 14:33:50;;;;;;;35.10;12.60;;;;;;;;;;5053168;28;20032;-57
2021/12/07 14:36:18;;;;;;;26.02;10.98;;;;;;;;;;5050887;28;20060;-57
2021/12/07 14:38:45;;;;;;;21.90;9.75;;;;;;;;;;5053220;28;20024;-57
2021/12/07 14:41:11;;;;;;;22.65;9.18;;;;;;;;;;5051154;28;20033;-57
2021/12/07 14:43:37;;;;;;;25.38;10.40;;;;;;;;;;5051355;28;20090;-57
2021/12/07 14:46:04;;;;;;;27.92;10.07;;;;;;;;;;5051310;28;20029;-57
2021/12/07 14:48:29;;;;;;;23.35;9.52;;;;;;;;;;5052564;28;20487;-57
2021/12/07 14:51:00;;;;;;;23.73;9.38;;;;;;;;;;5050639;28;20052;-57
2021/12/07 14:53:32;;;;;;;27.77;9.98;;;;;;;;;;5052467;28;20020;-58
2021/12/07 14:55:57;;;;;;;22.90;9.73;;;;;;;;;;5051081;28;20559;-57
2021/12/07 14:58:32;;;;;;;26.20;10.70;;;;;;;;;;5051983;28;20096;-57
2021/12/07 15:00:57;;;;;;;22.85;8.07;;;;;;;;;;5049465;28;20403;-57
2021/12/07 15:03:32;;;;;;;21.10;10.95;;;;;;;;;;5052502;28;20009;-57
2021/12/07 15:05:57;;;;;;;30.90;11.65;;;;;;;;;;5050572;28;20036;-57
2021/12/07 15:08:22;;;;;;;28.20;9.45;;;;;;;;;;5045128;28;20025;-57
2021/12/07 15:10:47;;;;;;;26.23;10.88;;;;;;;;;;5049734;28;20045;-57
2021/12/07 15:13:12;;;;;;;24.37;13.53;;;;;;;;;;5051858;28;20506;-57
2021/12/07 15:15:39;;;;;;;20.43;9.83;;;;;;;;;;5049310;28;20550;-57
2021/12/07 15:18:10;;;;;;;28.45;12.43;;;;;;;;;;5051909;28;20423;-57
2021/12/07 15:20:36;;;;;;;23.83;9.95;;;;;;;;;;5050049;28;20030;-57
2021/12/07 15:23:01;;;;;;;27.17;9.63;;;;;;;;;;5052199;28;20017;-57
2021/12/07 15:25:26;;;;;;;37.85;13.07;;;;;;;;;;5050262;28;20436;-57
2021/12/07 15:27:52;;;;;;;24.00;9.18;;;;;;;;;;5051461;28;20012;-57
2021/12/07 15:30:18;;;;;;;25.45;11.57;;;;;;;;;;5050161;28;20040;-58
2021/12/07 15:32:43;;;;;;;17.08;8.77;;;;;;;;;;5051810;28;20025;-57
2021/12/07 15:35:08;;;;;;;26.23;9.60;;;;;;;;;;5049818;28;20057;-57
2021/12/07 15:37:33;;;;;;;26.05;11.15;;;;;;;;;;5051837;28;20917;-58
2021/12/07 15:40:00;;;;;;;23.10;9.50;;;;;;;;;;5050384;28;20036;-57
2021/12/07 15:42:27;;;;;;;21.95;11.20;;;;;;;;;;5051095;28;20443;-57
2021/12/07 15:44:53;;;;;;;23.83;12.02;;;;;;;;;;5050569;28;20029;-57
2021/12/07 15:47:27;;;;;;;23.92;11.32;;;;;;;;;;5051668;28;20534;-58
2021/12/07 15:49:54;;;;;;;25.98;12.90;;;;;;;;;;5050116;28;20123;-57